createdAt,value
2017-05-06T00:00:36.704Z,19.22
2017-05-06T00:01:37.348Z,19.24
2017-05-06T00:02:37.997Z,19.19
2017-05-06T00:03:38.642Z,19.24
2017-05-06T00:04:39.285Z,19.19
2017-05-06T00:05:39.931Z,19.15
2017-05-06T00:06:40.877Z,19.09
2017-05-06T00:07:41.518Z,19.19
2017-05-06T00:08:42.164Z,19.26
2017-05-06T00:09:42.813Z,19.16
2017-05-06T00:10:43.452Z,19.14
2017-05-06T00:11:44.092Z,19.22
2017-05-06T00:12:44.733Z,19.18
2017-05-06T00:13:45.374Z,19.15
2017-05-06T00:14:46.217Z,19.19
2017-05-06T00:15:46.859Z,19.24
2017-05-06T00:16:47.498Z,19.15
2017-05-06T00:17:48.137Z,19.15
2017-05-06T00:18:48.781Z,19.11
2017-05-06T00:19:49.422Z,19.09
2017-05-06T00:20:50.063Z,19.14
2017-05-06T00:21:50.703Z,19.14
2017-05-06T00:22:51.695Z,19.12
2017-05-06T00:23:52.335Z,19.12
2017-05-06T00:24:52.978Z,19.12
2017-05-06T00:25:53.675Z,19.19
2017-05-06T00:26:54.318Z,19.12
2017-05-06T00:27:54.959Z,19.08
2017-05-06T00:28:55.599Z,19.16
2017-05-06T00:29:56.241Z,19.18
2017-05-06T00:30:57.085Z,19.08
2017-05-06T00:31:57.725Z,19.09
2017-05-06T00:32:58.365Z,19.08
2017-05-06T00:33:59.005Z,19.12
2017-05-06T00:34:59.646Z,19.11
2017-05-06T00:36:00.290Z,19.14
2017-05-06T00:37:00.929Z,19.09
2017-05-06T00:38:01.572Z,19.15
2017-05-06T00:39:02.409Z,19.07
2017-05-06T00:40:03.046Z,19.07
2017-05-06T00:41:03.684Z,19.12
2017-05-06T00:42:04.323Z,18.96
2017-05-06T00:43:04.963Z,19.00
2017-05-06T00:44:05.604Z,19.00
2017-05-06T00:45:06.246Z,19.04
2017-05-06T00:46:06.888Z,19.02
2017-05-06T00:47:07.529Z,19.11
2017-05-06T00:48:08.317Z,19.09
2017-05-06T00:49:08.962Z,19.04
2017-05-06T00:50:09.606Z,19.11
2017-05-06T00:51:10.239Z,19.08
2017-05-06T00:52:10.882Z,18.98
2017-05-06T00:53:11.522Z,19.02
2017-05-06T00:54:12.164Z,18.99
2017-05-06T00:55:12.805Z,19.04
2017-05-06T00:56:13.646Z,19.08
2017-05-06T00:57:14.287Z,18.99
2017-05-06T00:58:14.928Z,19.07
2017-05-06T00:59:15.570Z,19.09
2017-05-06T01:00:16.211Z,19.02
2017-05-06T01:01:16.806Z,19.08
2017-05-06T01:02:17.447Z,19.07
2017-05-06T01:03:18.087Z,19.00
2017-05-06T01:04:18.921Z,19.04
2017-05-06T01:05:19.564Z,19.08
2017-05-06T01:06:20.203Z,19.08
2017-05-06T01:07:20.842Z,19.00
2017-05-06T01:08:21.484Z,19.00
2017-05-06T01:09:22.124Z,19.02
2017-05-06T01:10:22.769Z,18.98
2017-05-06T01:11:23.407Z,19.04
2017-05-06T01:12:24.248Z,18.99
2017-05-06T01:13:24.888Z,19.08
2017-05-06T01:14:25.528Z,18.98
2017-05-06T01:15:26.172Z,18.98
2017-05-06T01:16:26.812Z,19.00
2017-05-06T01:17:27.452Z,19.08
2017-05-06T01:18:28.091Z,18.96
2017-05-06T01:19:28.733Z,18.95
2017-05-06T01:20:29.375Z,19.00
2017-05-06T01:21:30.214Z,18.99
2017-05-06T01:22:30.854Z,19.00
2017-05-06T01:23:31.494Z,18.99
2017-05-06T01:24:32.137Z,19.00
2017-05-06T01:25:32.776Z,19.00
2017-05-06T01:26:33.422Z,18.98
2017-05-06T01:27:34.061Z,18.98
2017-05-06T01:28:34.705Z,18.98
2017-05-06T01:29:35.794Z,18.98
2017-05-06T01:30:36.437Z,18.88
2017-05-06T01:31:37.080Z,18.98
2017-05-06T01:32:37.721Z,18.84
2017-05-06T01:33:38.361Z,18.98
2017-05-06T01:34:39.000Z,18.86
2017-05-06T01:35:39.646Z,18.98
2017-05-06T01:36:40.282Z,18.90
2017-05-06T01:37:41.125Z,18.93
2017-05-06T01:38:41.762Z,18.88
2017-05-06T01:39:42.401Z,18.96
2017-05-06T01:40:43.043Z,18.90
2017-05-06T01:41:43.682Z,19.00
2017-05-06T01:42:44.327Z,18.99
2017-05-06T01:43:44.968Z,18.89
2017-05-06T01:44:45.610Z,18.90
2017-05-06T01:45:46.400Z,18.93
2017-05-06T01:46:47.045Z,18.93
2017-05-06T01:47:47.686Z,18.84
2017-05-06T01:48:48.328Z,18.95
2017-05-06T01:49:48.963Z,18.95
2017-05-06T01:50:49.603Z,18.89
2017-05-06T01:51:50.241Z,18.90
2017-05-06T01:52:50.881Z,18.89
2017-05-06T01:53:51.725Z,18.93
2017-05-06T01:54:52.367Z,18.93
2017-05-06T01:55:53.010Z,18.92
2017-05-06T01:56:53.648Z,18.86
2017-05-06T01:57:54.290Z,18.89
2017-05-06T01:58:54.934Z,18.86
2017-05-06T01:59:55.578Z,18.88
2017-05-06T02:00:56.212Z,18.89
2017-05-06T02:01:56.853Z,18.88
2017-05-06T02:02:57.693Z,18.92
2017-05-06T02:03:58.336Z,18.84
2017-05-06T02:04:58.979Z,18.86
2017-05-06T02:05:59.619Z,18.86
2017-05-06T02:07:00.260Z,18.90
2017-05-06T02:08:00.902Z,18.88
2017-05-06T02:09:01.542Z,18.81
2017-05-06T02:10:02.184Z,18.83
2017-05-06T02:11:02.974Z,18.83
2017-05-06T02:12:03.617Z,18.80
2017-05-06T02:13:04.252Z,18.88
2017-05-06T02:14:04.897Z,18.90
2017-05-06T02:15:05.538Z,18.80
2017-05-06T02:16:06.179Z,18.86
2017-05-06T02:17:06.816Z,18.74
2017-05-06T02:18:07.456Z,18.83
2017-05-06T02:19:08.303Z,18.80
2017-05-06T02:20:08.942Z,18.78
2017-05-06T02:21:09.574Z,18.80
2017-05-06T02:22:10.215Z,18.80
2017-05-06T02:23:10.855Z,18.88
2017-05-06T02:24:11.497Z,18.77
2017-05-06T02:25:12.139Z,18.75
2017-05-06T02:26:12.780Z,18.80
2017-05-06T02:27:13.570Z,18.75
2017-05-06T02:28:14.212Z,18.75
2017-05-06T02:29:14.905Z,18.73
2017-05-06T02:30:15.547Z,18.77
2017-05-06T02:31:16.183Z,18.74
2017-05-06T02:32:16.826Z,18.81
2017-05-06T02:33:17.463Z,18.73
2017-05-06T02:34:18.106Z,18.71
2017-05-06T02:35:18.747Z,18.73
2017-05-06T02:36:19.590Z,18.73
2017-05-06T02:37:20.229Z,18.77
2017-05-06T02:38:20.868Z,18.75
2017-05-06T02:39:21.511Z,18.77
2017-05-06T02:40:22.155Z,18.74
2017-05-06T02:41:22.790Z,18.71
2017-05-06T02:42:23.431Z,18.75
2017-05-06T02:43:24.076Z,18.73
2017-05-06T02:44:24.913Z,18.68
2017-05-06T02:45:25.556Z,18.74
2017-05-06T02:46:26.200Z,18.74
2017-05-06T02:47:26.837Z,18.70
2017-05-06T02:48:27.478Z,18.71
2017-05-06T02:49:28.118Z,18.71
2017-05-06T02:50:28.759Z,18.73
2017-05-06T02:51:29.398Z,18.70
2017-05-06T02:52:30.186Z,18.73
2017-05-06T02:53:30.835Z,18.75
2017-05-06T02:54:31.474Z,18.73
2017-05-06T02:55:32.118Z,18.70
2017-05-06T02:56:32.753Z,18.74
2017-05-06T02:57:33.394Z,18.65
2017-05-06T02:58:34.038Z,18.68
2017-05-06T02:59:34.680Z,18.74
2017-05-06T03:00:35.520Z,18.62
2017-05-06T03:01:36.160Z,18.65
2017-05-06T03:02:36.802Z,18.65
2017-05-06T03:03:37.438Z,18.68
2017-05-06T03:04:38.080Z,18.70
2017-05-06T03:05:38.719Z,18.66
2017-05-06T03:06:39.362Z,18.63
2017-05-06T03:07:40.001Z,18.68
2017-05-06T03:08:40.840Z,18.71
2017-05-06T03:09:41.480Z,18.62
2017-05-06T03:10:42.120Z,18.63
2017-05-06T03:11:42.764Z,18.66
2017-05-06T03:12:43.401Z,18.74
2017-05-06T03:13:44.042Z,18.73
2017-05-06T03:14:44.686Z,18.63
2017-05-06T03:15:45.327Z,18.63
2017-05-06T03:16:45.967Z,18.68
2017-05-06T03:17:46.809Z,18.71
2017-05-06T03:18:47.448Z,18.62
2017-05-06T03:19:48.088Z,18.65
2017-05-06T03:20:48.730Z,18.59
2017-05-06T03:21:49.370Z,18.63
2017-05-06T03:22:50.004Z,18.62
2017-05-06T03:23:50.656Z,18.63
2017-05-06T03:24:51.294Z,18.60
2017-05-06T03:25:52.087Z,18.58
2017-05-06T03:26:52.726Z,18.70
2017-05-06T03:27:53.366Z,18.63
2017-05-06T03:28:54.004Z,18.65
2017-05-06T03:29:54.647Z,18.66
2017-05-06T03:30:55.288Z,18.62
2017-05-06T03:31:55.930Z,18.70
2017-05-06T03:32:56.567Z,18.65
2017-05-06T03:33:57.411Z,18.63
2017-05-06T03:34:58.052Z,18.60
2017-05-06T03:35:58.690Z,18.65
2017-05-06T03:36:59.331Z,18.59
2017-05-06T03:37:59.970Z,18.60
2017-05-06T03:39:00.610Z,18.66
2017-05-06T03:40:01.252Z,18.65
2017-05-06T03:41:01.895Z,18.58
2017-05-06T03:42:02.735Z,18.60
2017-05-06T03:43:03.377Z,18.59
2017-05-06T03:44:04.017Z,18.62
2017-05-06T03:45:04.654Z,18.66
2017-05-06T03:46:05.353Z,18.59
2017-05-06T03:47:05.992Z,18.63
2017-05-06T03:48:06.632Z,18.62
2017-05-06T03:49:07.276Z,18.56
2017-05-06T03:50:07.912Z,18.63
2017-05-06T03:51:08.753Z,18.58
2017-05-06T03:52:09.390Z,18.68
2017-05-06T03:53:10.033Z,18.60
2017-05-06T03:54:10.674Z,18.59
2017-05-06T03:55:11.319Z,18.68
2017-05-06T03:56:11.949Z,18.62
2017-05-06T03:57:12.592Z,18.60
2017-05-06T03:58:13.231Z,18.65
2017-05-06T03:59:14.022Z,18.60
2017-05-06T04:00:14.664Z,18.65
2017-05-06T04:01:15.303Z,18.60
2017-05-06T04:02:15.940Z,18.60
2017-05-06T04:03:16.582Z,18.60
2017-05-06T04:04:17.224Z,18.63
2017-05-06T04:05:17.865Z,18.59
2017-05-06T04:06:18.506Z,18.63
2017-05-06T04:07:19.349Z,18.65
2017-05-06T04:08:19.988Z,18.53
2017-05-06T04:09:20.633Z,18.58
2017-05-06T04:10:21.271Z,18.56
2017-05-06T04:11:21.912Z,18.66
2017-05-06T04:12:22.552Z,18.58
2017-05-06T04:13:23.191Z,18.65
2017-05-06T04:14:23.833Z,18.58
2017-05-06T04:15:24.677Z,18.66
2017-05-06T04:16:25.312Z,18.62
2017-05-06T04:17:25.952Z,18.52
2017-05-06T04:18:26.591Z,18.53
2017-05-06T04:19:27.235Z,18.55
2017-05-06T04:20:27.875Z,18.53
2017-05-06T04:21:28.515Z,18.52
2017-05-06T04:22:29.157Z,18.53
2017-05-06T04:23:29.996Z,18.52
2017-05-06T04:24:30.638Z,18.58
2017-05-06T04:25:31.280Z,18.53
2017-05-06T04:26:31.922Z,18.49
2017-05-06T04:27:32.561Z,18.59
2017-05-06T04:28:33.200Z,18.53
2017-05-06T04:29:33.840Z,18.52
2017-05-06T04:30:34.480Z,18.52
2017-05-06T04:31:35.120Z,18.50
2017-05-06T04:32:35.963Z,18.55
2017-05-06T04:33:36.604Z,18.56
2017-05-06T04:34:37.245Z,18.49
2017-05-06T04:35:37.887Z,18.55
2017-05-06T04:36:38.527Z,18.53
2017-05-06T04:37:39.174Z,18.47
2017-05-06T04:38:39.811Z,18.45
2017-05-06T04:39:40.451Z,18.47
2017-05-06T04:40:41.293Z,18.50
2017-05-06T04:41:41.934Z,18.53
2017-05-06T04:42:42.575Z,18.44
2017-05-06T04:43:43.218Z,18.52
2017-05-06T04:44:43.857Z,18.50
2017-05-06T04:45:44.497Z,18.44
2017-05-06T04:46:45.139Z,18.53
2017-05-06T04:47:45.777Z,18.45
2017-05-06T04:48:46.570Z,18.50
2017-05-06T04:49:47.210Z,18.44
2017-05-06T04:50:47.853Z,18.53
2017-05-06T04:51:48.494Z,18.43
2017-05-06T04:52:49.134Z,18.47
2017-05-06T04:53:49.778Z,18.55
2017-05-06T04:54:50.413Z,18.53
2017-05-06T04:55:51.054Z,18.53
2017-05-06T04:56:51.991Z,18.49
2017-05-06T04:57:52.630Z,18.47
2017-05-06T04:58:53.270Z,18.49
2017-05-06T04:59:53.907Z,18.55
2017-05-06T05:00:54.549Z,18.55
2017-05-06T05:01:55.188Z,18.53
2017-05-06T05:02:55.829Z,18.55
2017-05-06T05:03:56.470Z,18.55
2017-05-06T05:04:57.113Z,18.55
2017-05-06T05:05:57.954Z,18.52
2017-05-06T05:06:58.592Z,18.49
2017-05-06T05:07:59.233Z,18.55
2017-05-06T05:08:59.872Z,18.52
2017-05-06T05:10:00.512Z,18.53
2017-05-06T05:11:01.152Z,18.52
2017-05-06T05:12:01.792Z,18.53
2017-05-06T05:13:02.431Z,18.53
2017-05-06T05:14:03.272Z,18.44
2017-05-06T05:15:03.914Z,18.58
2017-05-06T05:16:04.556Z,18.56
2017-05-06T05:17:05.196Z,18.53
2017-05-06T05:18:05.835Z,18.49
2017-05-06T05:19:06.477Z,18.49
2017-05-06T05:20:07.117Z,18.52
2017-05-06T05:21:07.755Z,18.49
2017-05-06T05:22:08.598Z,18.45
2017-05-06T05:23:09.234Z,18.56
2017-05-06T05:24:09.882Z,18.55
2017-05-06T05:25:10.575Z,18.41
2017-05-06T05:26:11.215Z,18.47
2017-05-06T05:27:11.859Z,18.49
2017-05-06T05:28:12.499Z,18.50
2017-05-06T05:29:13.136Z,18.49
2017-05-06T05:30:13.977Z,18.55
2017-05-06T05:31:14.620Z,18.52
2017-05-06T05:32:15.258Z,18.44
2017-05-06T05:33:15.898Z,18.47
2017-05-06T05:34:16.546Z,18.43
2017-05-06T05:35:17.181Z,18.43
2017-05-06T05:36:17.822Z,18.43
2017-05-06T05:37:18.461Z,18.52
2017-05-06T05:38:19.501Z,18.44
2017-05-06T05:39:20.141Z,18.43
2017-05-06T05:40:20.781Z,18.45
2017-05-06T05:41:21.421Z,18.38
2017-05-06T05:42:22.061Z,18.44
2017-05-06T05:43:22.703Z,18.38
2017-05-06T05:44:23.343Z,18.45
2017-05-06T05:45:24.034Z,18.49
2017-05-06T05:46:24.675Z,18.43
2017-05-06T05:47:25.564Z,18.40
2017-05-06T05:48:26.205Z,18.52
2017-05-06T05:49:26.846Z,18.43
2017-05-06T05:50:27.486Z,18.40
2017-05-06T05:51:28.127Z,18.44
2017-05-06T05:52:28.765Z,18.41
2017-05-06T05:53:29.404Z,18.40
2017-05-06T05:54:30.045Z,18.37
2017-05-06T05:55:31.134Z,18.47
2017-05-06T05:56:31.774Z,18.47
2017-05-06T05:57:32.414Z,18.43
2017-05-06T05:58:33.056Z,18.41
2017-05-06T05:59:33.693Z,18.43
2017-05-06T06:00:34.338Z,18.43
2017-05-06T06:01:34.978Z,18.43
2017-05-06T06:02:35.620Z,18.43
2017-05-06T06:03:36.461Z,18.45
2017-05-06T06:04:37.100Z,18.37
2017-05-06T06:05:37.691Z,18.41
2017-05-06T06:06:38.333Z,18.43
2017-05-06T06:07:38.969Z,18.44
2017-05-06T06:08:39.610Z,18.43
2017-05-06T06:09:40.249Z,18.44
2017-05-06T06:10:40.892Z,18.44
2017-05-06T06:11:42.033Z,18.43
2017-05-06T06:12:42.675Z,18.41
2017-05-06T06:13:43.316Z,18.44
2017-05-06T06:14:43.951Z,18.47
2017-05-06T06:15:44.591Z,18.43
2017-05-06T06:16:45.235Z,18.49
2017-05-06T06:17:45.875Z,18.38
2017-05-06T06:18:46.521Z,18.45
2017-05-06T06:19:47.155Z,18.43
2017-05-06T06:20:47.996Z,18.45
2017-05-06T06:21:48.637Z,18.43
2017-05-06T06:22:49.280Z,18.44
2017-05-06T06:23:49.920Z,18.44
2017-05-06T06:24:50.558Z,18.43
2017-05-06T06:25:51.203Z,18.45
2017-05-06T06:26:51.840Z,18.43
2017-05-06T06:27:52.480Z,18.41
2017-05-06T06:28:53.672Z,18.41
2017-05-06T06:29:54.312Z,18.47
2017-05-06T06:30:54.947Z,18.43
2017-05-06T06:31:55.588Z,18.44
2017-05-06T06:32:56.227Z,18.40
2017-05-06T06:33:56.868Z,18.40
2017-05-06T06:34:57.511Z,18.47
2017-05-06T06:35:58.148Z,18.41
2017-05-06T06:36:59.036Z,18.41
2017-05-06T06:37:59.678Z,18.44
2017-05-06T06:39:00.317Z,18.44
2017-05-06T06:40:00.959Z,18.44
2017-05-06T06:41:01.596Z,18.41
2017-05-06T06:42:02.235Z,18.44
2017-05-06T06:43:02.877Z,18.40
2017-05-06T06:44:03.519Z,18.44
2017-05-06T06:45:04.313Z,18.44
2017-05-06T06:46:04.947Z,18.43
2017-05-06T06:47:05.590Z,18.45
2017-05-06T06:48:06.231Z,18.41
2017-05-06T06:49:06.872Z,18.44
2017-05-06T06:50:07.515Z,18.45
2017-05-06T06:51:08.167Z,18.43
2017-05-06T06:52:08.801Z,18.47
2017-05-06T06:53:09.635Z,18.45
2017-05-06T06:54:10.277Z,18.50
2017-05-06T06:55:10.917Z,18.49
2017-05-06T06:56:11.558Z,18.47
2017-05-06T06:57:12.198Z,18.55
2017-05-06T06:58:12.839Z,18.53
2017-05-06T06:59:13.474Z,18.50
2017-05-06T07:00:14.115Z,18.55
2017-05-06T07:01:14.758Z,18.52
2017-05-06T07:02:15.800Z,18.45
2017-05-06T07:03:16.440Z,18.50
2017-05-06T07:04:17.079Z,18.47
2017-05-06T07:05:17.723Z,18.50
2017-05-06T07:06:18.363Z,18.47
2017-05-06T07:07:19.002Z,18.58
2017-05-06T07:08:19.642Z,18.45
2017-05-06T07:09:20.279Z,18.50
2017-05-06T07:10:21.368Z,18.41
2017-05-06T07:11:22.010Z,18.52
2017-05-06T07:12:22.650Z,18.58
2017-05-06T07:13:23.286Z,18.44
2017-05-06T07:14:23.927Z,18.47
2017-05-06T07:15:24.569Z,18.49
2017-05-06T07:16:25.211Z,18.53
2017-05-06T07:17:25.849Z,18.59
2017-05-06T07:18:26.690Z,18.53
2017-05-06T07:19:27.331Z,18.62
2017-05-06T07:20:27.969Z,18.58
2017-05-06T07:21:28.611Z,18.47
2017-05-06T07:22:29.247Z,18.55
2017-05-06T07:23:29.887Z,18.58
2017-05-06T07:24:30.526Z,18.53
2017-05-06T07:25:31.168Z,18.53
2017-05-06T07:26:31.959Z,18.53
2017-05-06T07:27:32.601Z,18.63
2017-05-06T07:28:33.242Z,18.62
2017-05-06T07:29:33.885Z,18.52
2017-05-06T07:30:34.529Z,18.56
2017-05-06T07:31:35.166Z,18.53
2017-05-06T07:32:35.808Z,18.53
2017-05-06T07:33:36.446Z,18.53
2017-05-06T07:34:37.086Z,18.53
2017-05-06T07:35:37.922Z,18.60
2017-05-06T07:36:38.563Z,18.53
2017-05-06T07:37:39.205Z,18.58
2017-05-06T07:38:39.848Z,18.58
2017-05-06T07:39:40.487Z,18.58
2017-05-06T07:40:41.128Z,18.65
2017-05-06T07:41:41.768Z,18.60
2017-05-06T07:42:42.405Z,18.59
2017-05-06T07:43:43.246Z,18.63
2017-05-06T07:44:43.883Z,18.66
2017-05-06T07:45:44.474Z,18.65
2017-05-06T07:46:45.112Z,18.71
2017-05-06T07:47:45.746Z,18.70
2017-05-06T07:48:46.390Z,18.59
2017-05-06T07:49:47.032Z,18.41
2017-05-06T07:50:47.678Z,18.31
2017-05-06T07:51:48.474Z,18.03
2017-05-06T07:52:49.119Z,17.78
2017-05-06T07:53:49.763Z,17.60
2017-05-06T07:54:50.412Z,17.38
2017-05-06T07:55:51.048Z,17.12
2017-05-06T07:56:51.690Z,16.97
2017-05-06T07:57:52.335Z,16.87
2017-05-06T07:58:52.981Z,16.91
2017-05-06T07:59:53.832Z,16.91
2017-05-06T08:00:54.474Z,16.86
2017-05-06T08:01:55.118Z,16.87
2017-05-06T08:02:55.762Z,16.91
2017-05-06T08:03:56.404Z,17.04
2017-05-06T08:04:57.047Z,17.05
2017-05-06T08:05:57.691Z,17.09
2017-05-06T08:06:58.338Z,17.09
2017-05-06T08:07:59.179Z,17.30
2017-05-06T08:08:59.820Z,17.39
2017-05-06T08:10:00.467Z,17.24
2017-05-06T08:11:01.114Z,17.30
2017-05-06T08:12:01.757Z,17.29
2017-05-06T08:13:02.402Z,17.33
2017-05-06T08:14:03.047Z,17.24
2017-05-06T08:15:03.691Z,17.39
2017-05-06T08:16:04.332Z,17.39
2017-05-06T08:17:05.171Z,17.41
2017-05-06T08:18:05.816Z,17.39
2017-05-06T08:19:06.459Z,17.26
2017-05-06T08:20:07.101Z,17.24
2017-05-06T08:21:07.743Z,17.24
2017-05-06T08:22:08.386Z,17.14
2017-05-06T08:23:09.027Z,17.09
2017-05-06T08:24:09.672Z,16.97
2017-05-06T08:25:10.518Z,16.94
2017-05-06T08:26:11.161Z,16.97
2017-05-06T08:27:11.804Z,17.01
2017-05-06T08:28:12.449Z,16.97
2017-05-06T08:29:13.095Z,16.83
2017-05-06T08:30:13.734Z,16.87
2017-05-06T08:31:14.380Z,16.91
2017-05-06T08:32:15.020Z,16.93
2017-05-06T08:33:15.867Z,16.91
2017-05-06T08:34:16.511Z,16.97
2017-05-06T08:35:17.155Z,16.87
2017-05-06T08:36:17.802Z,16.93
2017-05-06T08:37:18.446Z,16.97
2017-05-06T08:38:19.089Z,17.02
2017-05-06T08:39:19.735Z,17.02
2017-05-06T08:40:20.375Z,17.14
2017-05-06T08:41:21.166Z,17.22
2017-05-06T08:42:21.812Z,17.16
2017-05-06T08:43:22.451Z,17.23
2017-05-06T08:44:23.093Z,17.31
2017-05-06T08:45:23.736Z,17.27
2017-05-06T08:46:24.382Z,17.34
2017-05-06T08:47:25.026Z,17.48
2017-05-06T08:48:25.668Z,17.52
2017-05-06T08:49:26.313Z,17.54
2017-05-06T08:50:27.059Z,17.49
2017-05-06T08:51:27.703Z,17.41
2017-05-06T08:52:28.348Z,17.34
2017-05-06T08:53:28.991Z,17.33
2017-05-06T08:54:29.636Z,17.33
2017-05-06T08:55:30.279Z,17.33
2017-05-06T08:56:30.924Z,17.24
2017-05-06T08:57:31.567Z,17.45
2017-05-06T08:58:32.410Z,17.46
2017-05-06T08:59:33.058Z,17.51
2017-05-06T09:00:33.704Z,17.63
2017-05-06T09:01:34.348Z,17.68
2017-05-06T09:02:34.996Z,17.64
2017-05-06T09:03:35.640Z,17.68
2017-05-06T09:04:36.285Z,17.65
2017-05-06T09:05:36.932Z,17.65
2017-05-06T09:06:37.779Z,17.65
2017-05-06T09:07:38.421Z,17.63
2017-05-06T09:08:39.065Z,17.70
2017-05-06T09:09:39.705Z,17.74
2017-05-06T09:10:40.346Z,17.86
2017-05-06T09:11:40.989Z,17.86
2017-05-06T09:12:41.632Z,17.92
2017-05-06T09:13:42.276Z,17.95
2017-05-06T09:14:43.016Z,17.97
2017-05-06T09:15:43.660Z,18.04
2017-05-06T09:16:44.303Z,18.22
2017-05-06T09:17:44.974Z,18.18
2017-05-06T09:18:45.594Z,18.23
2017-05-06T09:19:46.239Z,18.29
2017-05-06T09:20:46.882Z,18.29
2017-05-06T09:21:47.527Z,18.33
2017-05-06T09:22:48.372Z,18.41
2017-05-06T09:23:49.012Z,18.49
2017-05-06T09:24:49.658Z,18.53
2017-05-06T09:25:50.306Z,18.58
2017-05-06T09:26:50.950Z,18.73
2017-05-06T09:27:51.596Z,18.88
2017-05-06T09:28:52.244Z,18.89
2017-05-06T09:29:52.891Z,19.00
2017-05-06T09:30:53.539Z,19.18
2017-05-06T09:31:54.390Z,19.21
2017-05-06T09:32:55.037Z,19.44
2017-05-06T09:33:55.686Z,19.44
2017-05-06T09:34:56.358Z,19.45
2017-05-06T09:35:56.981Z,19.40
2017-05-06T09:36:57.622Z,19.27
2017-05-06T09:37:58.269Z,19.08
2017-05-06T09:38:58.908Z,18.98
2017-05-06T09:39:59.753Z,18.90
2017-05-06T09:41:00.394Z,18.77
2017-05-06T09:42:01.038Z,18.83
2017-05-06T09:43:01.692Z,18.89
2017-05-06T09:44:02.328Z,19.02
2017-05-06T09:45:02.973Z,19.07
2017-05-06T09:46:03.618Z,19.24
2017-05-06T09:47:04.266Z,19.29
2017-05-06T09:48:05.111Z,19.24
2017-05-06T09:49:05.757Z,19.30
2017-05-06T09:50:06.401Z,19.33
2017-05-06T09:51:07.045Z,19.15
2017-05-06T09:52:07.683Z,19.15
2017-05-06T09:53:08.330Z,19.16
2017-05-06T09:54:08.975Z,19.24
2017-05-06T09:55:09.619Z,19.26
2017-05-06T09:56:10.462Z,19.16
2017-05-06T09:57:11.104Z,19.12
2017-05-06T09:58:11.749Z,19.09
2017-05-06T09:59:12.395Z,18.99
2017-05-06T10:00:13.038Z,18.81
2017-05-06T10:01:13.684Z,18.73
2017-05-06T10:02:14.338Z,18.74
2017-05-06T10:03:14.977Z,18.75
2017-05-06T10:04:15.619Z,18.89
2017-05-06T10:05:16.415Z,19.08
2017-05-06T10:06:17.064Z,19.22
2017-05-06T10:07:17.732Z,19.21
2017-05-06T10:08:18.419Z,19.33
2017-05-06T10:09:19.069Z,19.41
2017-05-06T10:10:19.719Z,19.49
2017-05-06T10:11:20.367Z,19.45
2017-05-06T10:12:21.008Z,19.45
2017-05-06T10:13:21.955Z,19.41
2017-05-06T10:14:22.602Z,19.47
2017-05-06T10:15:23.251Z,19.55
2017-05-06T10:16:23.900Z,19.67
2017-05-06T10:17:24.546Z,19.71
2017-05-06T10:18:25.193Z,19.64
2017-05-06T10:19:25.840Z,19.66
2017-05-06T10:20:26.487Z,19.69
2017-05-06T10:21:27.281Z,19.59
2017-05-06T10:22:27.934Z,19.59
2017-05-06T10:23:28.576Z,19.63
2017-05-06T10:24:29.222Z,19.59
2017-05-06T10:25:29.864Z,19.63
2017-05-06T10:26:30.516Z,19.56
2017-05-06T10:27:31.164Z,19.59
2017-05-06T10:28:31.816Z,19.56
2017-05-06T10:29:32.668Z,19.51
2017-05-06T10:30:33.318Z,19.66
2017-05-06T10:31:33.969Z,19.85
2017-05-06T10:32:34.621Z,19.76
2017-05-06T10:33:35.261Z,19.59
2017-05-06T10:34:35.912Z,19.48
2017-05-06T10:35:36.561Z,19.36
2017-05-06T10:36:37.206Z,19.19
2017-05-06T10:37:38.052Z,19.14
2017-05-06T10:38:38.705Z,19.16
2017-05-06T10:39:39.360Z,19.31
2017-05-06T10:40:40.015Z,19.44
2017-05-06T10:41:40.667Z,19.54
2017-05-06T10:42:41.320Z,19.76
2017-05-06T10:43:41.976Z,19.85
2017-05-06T10:44:42.629Z,19.94
2017-05-06T10:45:43.287Z,20.19
2017-05-06T10:46:44.142Z,20.31
2017-05-06T10:47:44.796Z,20.34
2017-05-06T10:48:45.452Z,20.43
2017-05-06T10:49:46.111Z,20.65
2017-05-06T10:50:46.769Z,20.62
2017-05-06T10:51:47.429Z,20.75
2017-05-06T10:52:48.088Z,20.77
2017-05-06T10:53:48.748Z,21.02
2017-05-06T10:54:49.604Z,21.02
2017-05-06T10:55:50.264Z,21.02
2017-05-06T10:56:50.928Z,20.96
2017-05-06T10:57:51.576Z,20.95
2017-05-06T10:58:52.279Z,20.95
2017-05-06T10:59:52.932Z,20.59
2017-05-06T11:00:53.590Z,20.63
2017-05-06T11:01:54.252Z,20.96
2017-05-06T11:02:55.175Z,21.29
2017-05-06T11:03:55.832Z,21.43
2017-05-06T11:04:56.493Z,21.58
2017-05-06T11:05:57.154Z,21.85
2017-05-06T11:06:57.813Z,22.11
2017-05-06T11:07:58.475Z,21.98
2017-05-06T11:08:59.131Z,22.11
2017-05-06T11:09:59.794Z,22.18
2017-05-06T11:11:00.605Z,22.41
2017-05-06T11:12:01.261Z,22.68
2017-05-06T11:13:01.918Z,22.39
2017-05-06T11:14:02.581Z,22.55
2017-05-06T11:15:03.243Z,22.62
2017-05-06T11:16:03.906Z,22.48
2017-05-06T11:17:04.561Z,21.87
2017-05-06T11:18:05.221Z,21.50
2017-05-06T11:19:05.882Z,21.22
2017-05-06T11:20:06.739Z,21.07
2017-05-06T11:21:07.395Z,20.78
2017-05-06T11:22:08.065Z,20.65
2017-05-06T11:23:09.030Z,21.21
2017-05-06T11:24:09.689Z,21.91
2017-05-06T11:25:10.347Z,22.38
2017-05-06T11:26:11.006Z,22.84
2017-05-06T11:27:11.665Z,22.76
2017-05-06T11:28:12.573Z,23.06
2017-05-06T11:29:13.235Z,23.25
2017-05-06T11:30:13.888Z,23.44
2017-05-06T11:31:14.552Z,23.71
2017-05-06T11:32:15.211Z,23.66
2017-05-06T11:33:15.874Z,23.93
2017-05-06T11:34:16.536Z,23.84
2017-05-06T11:35:17.191Z,23.98
2017-05-06T11:36:18.153Z,24.42
2017-05-06T11:37:18.814Z,24.50
2017-05-06T11:38:19.477Z,24.50
2017-05-06T11:39:20.138Z,24.65
2017-05-06T11:40:20.797Z,24.66
2017-05-06T11:41:21.459Z,24.76
2017-05-06T11:42:22.123Z,24.53
2017-05-06T11:43:22.786Z,24.30
2017-05-06T11:44:23.702Z,24.58
2017-05-06T11:45:24.359Z,24.43
2017-05-06T11:46:25.024Z,24.51
2017-05-06T11:47:25.690Z,24.48
2017-05-06T11:48:26.353Z,24.21
2017-05-06T11:49:27.018Z,24.38
2017-05-06T11:50:27.683Z,24.51
2017-05-06T11:51:28.349Z,24.60
2017-05-06T11:52:29.165Z,24.76
2017-05-06T11:53:29.831Z,24.93
2017-05-06T11:54:30.497Z,25.21
2017-05-06T11:55:31.163Z,25.32
2017-05-06T11:56:31.829Z,25.38
2017-05-06T11:57:32.493Z,25.23
2017-05-06T11:58:33.156Z,25.33
2017-05-06T11:59:33.822Z,25.81
2017-05-06T12:00:34.488Z,25.78
2017-05-06T12:01:35.353Z,26.26
2017-05-06T12:02:36.020Z,26.53
2017-05-06T12:03:36.683Z,26.77
2017-05-06T12:04:37.351Z,26.36
2017-05-06T12:05:38.016Z,26.55
2017-05-06T12:06:38.685Z,25.90
2017-05-06T12:07:39.352Z,25.72
2017-05-06T12:08:40.016Z,25.98
2017-05-06T12:09:41.084Z,26.19
2017-05-06T12:10:41.753Z,25.91
2017-05-06T12:11:43.183Z,26.18
2017-05-06T12:12:43.846Z,25.95
2017-05-06T12:13:44.514Z,25.88
2017-05-06T12:14:45.181Z,25.88
2017-05-06T12:15:45.847Z,25.85
2017-05-06T12:16:46.516Z,25.93
2017-05-06T12:17:47.482Z,25.88
2017-05-06T12:18:48.148Z,26.52
2017-05-06T12:19:48.816Z,26.81
2017-05-06T12:20:49.431Z,26.58
2017-05-06T12:21:51.150Z,26.89
2017-05-06T12:22:51.815Z,27.08
2017-05-06T12:23:52.485Z,27.33
2017-05-06T12:24:53.148Z,27.45
2017-05-06T12:25:54.112Z,27.40
2017-05-06T12:26:54.805Z,27.20
2017-05-06T12:27:55.443Z,27.55
2017-05-06T12:28:56.103Z,27.78
2017-05-06T12:29:56.770Z,27.86
2017-05-06T12:30:57.439Z,27.70
2017-05-06T12:31:58.106Z,27.51
2017-05-06T12:32:58.771Z,27.78
2017-05-06T12:33:59.438Z,27.60
2017-05-06T12:35:00.310Z,27.51
2017-05-06T12:36:00.972Z,27.45
2017-05-06T12:37:01.634Z,27.58
2017-05-06T12:38:02.303Z,27.75
2017-05-06T12:39:02.969Z,27.92
2017-05-06T12:40:03.630Z,28.52
2017-05-06T12:41:04.298Z,28.37
2017-05-06T12:42:04.962Z,28.01
2017-05-06T12:43:05.779Z,28.14
2017-05-06T12:44:06.443Z,28.63
2017-05-06T12:45:07.112Z,28.82
2017-05-06T12:46:07.777Z,29.71
2017-05-06T12:47:08.443Z,29.13
2017-05-06T12:48:09.110Z,28.78
2017-05-06T12:49:09.769Z,28.96
2017-05-06T12:50:10.432Z,29.23
2017-05-06T12:51:11.298Z,29.81
2017-05-06T12:52:11.974Z,28.91
2017-05-06T12:53:12.640Z,28.82
2017-05-06T12:54:13.309Z,29.04
2017-05-06T12:55:13.972Z,29.38
2017-05-06T12:56:14.642Z,29.44
2017-05-06T12:57:15.305Z,29.69
2017-05-06T12:58:15.969Z,29.87
2017-05-06T12:59:16.984Z,29.54
2017-05-06T13:00:17.651Z,28.86
2017-05-06T13:01:18.317Z,28.33